Time,TemperatureF,DewpointF,PressureIn,WindDirection,WindDirectionDegrees,WindSpeedMPH,WindSpeedGustMPH,Humidity,HourlyPrecipIn,Conditions,Clouds,dailyrainin,SoftwareType,DateUTC
2013-09-28 00:03:00,48.2,43.9,29.82,NW,315,0.0,-999.0,85,-99.99,,,0.00,Acu-Link.com,2013-09-28 07:03:00,
2013-09-28 00:18:00,48.2,43.9,29.81,SW,225,0.0,-999.0,85,-99.99,,,0.00,Acu-Link.com,2013-09-28 07:18:00,
2013-09-28 00:34:00,48.2,44.2,29.81,West,270,0.0,-999.0,86,-99.99,,,0.00,Acu-Link.com,2013-09-28 07:34:00,
2013-09-28 00:49:00,48.2,44.5,29.80,NW,315,0.0,-999.0,87,-99.99,,,0.00,Acu-Link.com,2013-09-28 07:49:00,
2013-09-28 01:04:00,48.2,44.5,29.80,ESE,112,0.0,-999.0,87,-99.99,,,0.00,Acu-Link.com,2013-09-28 08:04:00,
2013-09-28 01:19:00,48.2,44.5,29.80,ESE,112,0.0,-999.0,87,-99.99,,,0.00,Acu-Link.com,2013-09-28 08:19:00,
2013-09-28 01:34:00,48.4,44.7,29.80,East,90,0.0,-999.0,87,-99.99,,,0.00,Acu-Link.com,2013-09-28 08:34:00,
2013-09-28 01:49:00,48.4,44.7,29.80,West,270,0.0,-999.0,87,-99.99,,,0.00,Acu-Link.com,2013-09-28 08:49:00,
2013-09-28 02:05:00,48.6,44.9,29.80,West,270,0.0,-999.0,87,-99.99,,,0.00,Acu-Link.com,2013-09-28 09:05:00,
2013-09-28 02:20:00,48.7,45.0,29.79,ESE,112,0.0,-999.0,87,-99.99,,,0.00,Acu-Link.com,2013-09-28 09:20:00,
2013-09-28 02:35:00,48.7,45.0,29.80,ESE,112,0.0,-999.0,87,-99.99,,,0.00,Acu-Link.com,2013-09-28 09:35:00,
2013-09-28 02:50:00,48.9,44.9,29.79,ESE,112,0.0,-999.0,86,-99.99,,,0.00,Acu-Link.com,2013-09-28 09:50:00,
2013-09-28 03:06:00,48.9,44.9,29.79,ESE,112,0.0,-999.0,86,-99.99,,,0.00,Acu-Link.com,2013-09-28 10:06:00,
2013-09-28 03:21:00,49.1,44.8,29.79,SE,135,0.0,-999.0,85,-99.99,,,0.00,Acu-Link.com,2013-09-28 10:21:00,
2013-09-28 03:38:00,49.1,44.8,29.77,East,90,2.7,-999.0,85,-99.99,,,0.00,Acu-Link.com,2013-09-28 10:38:00,
2013-09-28 03:53:00,49.3,44.4,29.78,ESE,112,1.7,-999.0,83,-99.99,,,0.00,Acu-Link.com,2013-09-28 10:53:00,
2013-09-28 04:08:00,49.6,44.3,29.77,ESE,112,0.0,-999.0,82,-99.99,,,0.00,Acu-Link.com,2013-09-28 11:08:00,
2013-09-28 04:23:00,49.6,44.7,29.77,ESE,112,0.0,-999.0,83,-99.99,,,0.00,Acu-Link.com,2013-09-28 11:23:00,
2013-09-28 04:39:00,49.8,44.5,29.77,ESE,112,0.0,-999.0,82,-99.99,,,0.00,Acu-Link.com,2013-09-28 11:39:00,
2013-09-28 04:55:00,50.0,45.0,29.75,East,90,0.0,-999.0,83,-99.99,,,0.00,Acu-Link.com,2013-09-28 11:55:00,
2013-09-28 05:10:00,50.0,45.4,29.74,SSW,202,1.1,-999.0,84,-99.99,,,0.00,Acu-Link.com,2013-09-28 12:10:00,
2013-09-28 05:25:00,50.4,45.1,29.74,ESE,112,0.0,-999.0,82,-99.99,,,0.00,Acu-Link.com,2013-09-28 12:25:00,
2013-09-28 05:40:00,50.5,44.9,29.73,ESE,112,1.1,-999.0,81,-99.99,,,0.00,Acu-Link.com,2013-09-28 12:40:00,
2013-09-28 05:56:00,50.7,45.1,29.73,ESE,112,1.1,-999.0,81,-99.99,,,0.00,Acu-Link.com,2013-09-28 12:56:00,
2013-09-28 06:11:00,50.7,45.7,29.74,West,270,1.1,-999.0,83,-99.99,,,0.00,Acu-Link.com,2013-09-28 13:11:00,
2013-09-28 06:26:00,50.5,45.8,29.73,SE,135,0.0,-999.0,84,-99.99,,,0.01,Acu-Link.com,2013-09-28 13:26:00,
2013-09-28 06:42:00,50.5,46.2,29.72,ENE,67,0.0,-999.0,85,-99.99,,,0.03,Acu-Link.com,2013-09-28 13:42:00,
2013-09-28 06:57:00,50.4,46.4,29.72,NW,315,0.0,-999.0,86,-99.99,,,0.04,Acu-Link.com,2013-09-28 13:57:00,
2013-09-28 07:12:00,50.2,46.5,29.71,NW,315,0.0,-999.0,87,-99.99,,,0.05,Acu-Link.com,2013-09-28 14:12:00,
2013-09-28 07:27:00,50.0,46.3,29.71,East,90,2.2,-999.0,87,-99.99,,,0.06,Acu-Link.com,2013-09-28 14:27:00,
2013-09-28 07:43:00,50.0,46.6,29.69,WNW,292,0.0,-999.0,88,-99.99,,,0.11,Acu-Link.com,2013-09-28 14:43:00,
2013-09-28 07:58:00,50.4,47.0,29.68,SSE,157,0.0,-999.0,88,-99.99,,,0.12,Acu-Link.com,2013-09-28 14:58:00,
2013-09-28 08:13:00,50.5,47.1,29.68,ESE,112,0.0,-999.0,88,-99.99,,,0.13,Acu-Link.com,2013-09-28 15:13:00,
2013-09-28 08:29:00,50.9,47.5,29.67,WSW,247,2.2,-999.0,88,-99.99,,,0.15,Acu-Link.com,2013-09-28 15:29:00,
2013-09-28 08:44:00,50.9,47.5,29.67,NW,315,0.0,-999.0,88,-99.99,,,0.16,Acu-Link.com,2013-09-28 15:44:00,
2013-09-28 08:59:00,51.3,47.9,29.67,ESE,112,2.2,-999.0,88,-99.99,,,0.17,Acu-Link.com,2013-09-28 15:59:00,
2013-09-28 09:15:00,51.3,47.9,29.66,East,90,2.7,-999.0,88,-99.99,,,0.18,Acu-Link.com,2013-09-28 16:15:00,
2013-09-28 09:30:00,51.4,48.0,29.66,East,90,2.2,-999.0,88,-99.99,,,0.21,Acu-Link.com,2013-09-28 16:30:00,
2013-09-28 09:45:00,52.0,48.6,29.65,West,270,2.2,-999.0,88,-99.99,,,0.22,Acu-Link.com,2013-09-28 16:45:00,
2013-09-28 10:01:00,52.3,48.9,29.65,ESE,112,2.7,-999.0,88,-99.99,,,0.24,Acu-Link.com,2013-09-28 17:01:00,
2013-09-28 10:16:00,52.7,49.2,29.64,ESE,112,2.2,-999.0,88,-99.99,,,0.25,Acu-Link.com,2013-09-28 17:16:00,
2013-09-28 10:32:00,53.8,50.3,29.64,ESE,112,3.7,-999.0,88,-99.99,,,0.27,Acu-Link.com,2013-09-28 17:32:00,
2013-09-28 10:47:00,54.1,50.0,29.63,SSE,157,1.7,-999.0,86,-99.99,,,0.28,Acu-Link.com,2013-09-28 17:47:00,
2013-09-28 11:02:00,54.1,50.0,29.62,East,90,2.7,-999.0,86,-99.99,,,0.28,Acu-Link.com,2013-09-28 18:02:00,
2013-09-28 11:18:00,54.5,50.4,29.62,SSE,157,1.1,-999.0,86,-99.99,,,0.29,Acu-Link.com,2013-09-28 18:18:00,
2013-09-28 11:33:00,55.0,50.6,29.61,SSE,157,2.7,-999.0,85,-99.99,,,0.29,Acu-Link.com,2013-09-28 18:33:00,
2013-09-28 11:48:00,55.4,50.6,29.60,ENE,67,4.7,-999.0,84,-99.99,,,0.30,Acu-Link.com,2013-09-28 18:48:00,
2013-09-28 12:03:00,55.9,50.8,29.60,West,270,6.3,-999.0,83,-99.99,,,0.30,Acu-Link.com,2013-09-28 19:03:00,
2013-09-28 12:19:00,57.0,51.2,29.60,SSW,202,2.2,-999.0,81,-99.99,,,0.30,Acu-Link.com,2013-09-28 19:19:00,
2013-09-28 12:34:00,57.9,51.1,29.59,ENE,67,2.7,-999.0,78,-99.99,,,0.30,Acu-Link.com,2013-09-28 19:34:00,
2013-09-28 12:49:00,58.6,51.1,29.58,North,0,6.8,-999.0,76,-99.99,,,0.30,Acu-Link.com,2013-09-28 19:49:00,
2013-09-28 13:04:00,59.4,51.1,29.57,East,90,7.8,-999.0,74,-99.99,,,0.30,Acu-Link.com,2013-09-28 20:04:00,
2013-09-28 13:19:00,60.3,51.2,29.56,WSW,247,4.2,-999.0,72,-99.99,,,0.30,Acu-Link.com,2013-09-28 20:19:00,
2013-09-28 13:34:00,60.6,51.1,29.56,SSW,202,2.7,-999.0,71,-99.99,,,0.30,Acu-Link.com,2013-09-28 20:34:00,
2013-09-28 13:50:00,61.0,51.1,29.55,SE,135,6.3,-999.0,70,-99.99,,,0.30,Acu-Link.com,2013-09-28 20:50:00,
2013-09-28 14:05:00,59.9,51.6,29.55,ESE,112,3.2,-999.0,74,-99.99,,,0.30,Acu-Link.com,2013-09-28 21:05:00,
2013-09-28 14:20:00,60.3,52.0,29.55,ESE,112,2.7,-999.0,74,-99.99,,,0.30,Acu-Link.com,2013-09-28 21:20:00,
2013-09-28 14:36:00,59.2,51.6,29.55,ENE,67,5.8,-999.0,76,-99.99,,,0.30,Acu-Link.com,2013-09-28 21:36:00,
2013-09-28 14:51:00,58.8,52.0,29.54,South,180,6.3,-999.0,78,-99.99,,,0.30,Acu-Link.com,2013-09-28 21:51:00,
2013-09-28 15:06:00,58.8,52.3,29.54,East,90,7.8,-999.0,79,-99.99,,,0.31,Acu-Link.com,2013-09-28 22:06:00,
2013-09-28 15:22:00,58.3,51.8,29.54,WNW,292,3.7,-999.0,79,-99.99,,,0.31,Acu-Link.com,2013-09-28 22:22:00,
2013-09-28 15:37:00,57.7,51.6,29.53,SSW,202,2.7,-999.0,80,-99.99,,,0.31,Acu-Link.com,2013-09-28 22:37:00,
2013-09-28 15:52:00,57.6,51.8,29.53,ESE,112,3.7,-999.0,81,-99.99,,,0.32,Acu-Link.com,2013-09-28 22:52:00,
2013-09-28 16:07:00,57.4,51.9,29.53,ESE,112,2.7,-999.0,82,-99.99,,,0.33,Acu-Link.com,2013-09-28 23:07:00,
2013-09-28 16:22:00,57.0,51.9,29.53,SW,225,1.1,-999.0,83,-99.99,,,0.33,Acu-Link.com,2013-09-28 23:22:00,
2013-09-28 16:38:00,56.5,51.7,29.52,South,180,2.2,-999.0,84,-99.99,,,0.35,Acu-Link.com,2013-09-28 23:38:00,
2013-09-28 16:53:00,56.3,51.8,29.52,West,270,1.7,-999.0,85,-99.99,,,0.36,Acu-Link.com,2013-09-28 23:53:00,
2013-09-28 17:08:00,55.9,51.8,29.52,ESE,112,4.2,-999.0,86,-99.99,,,0.41,Acu-Link.com,2013-09-29 00:08:00,
2013-09-28 17:23:00,55.9,51.8,29.51,NNE,22,4.2,-999.0,86,-99.99,,,0.41,Acu-Link.com,2013-09-29 00:23:00,
2013-09-28 17:39:00,55.8,51.0,29.50,SW,225,4.7,-999.0,84,-99.99,,,0.41,Acu-Link.com,2013-09-29 00:39:00,
2013-09-28 17:54:00,55.6,51.2,29.50,ESE,112,4.7,-999.0,85,-99.99,,,0.42,Acu-Link.com,2013-09-29 00:54:00,
2013-09-28 18:09:00,55.6,51.2,29.48,ESE,112,3.7,-999.0,85,-99.99,,,0.43,Acu-Link.com,2013-09-29 01:09:00,
2013-09-28 18:25:00,55.4,50.3,29.48,ENE,67,1.7,-999.0,83,-99.99,,,0.43,Acu-Link.com,2013-09-29 01:25:00,
2013-09-28 18:40:00,55.4,50.3,29.46,SSE,157,3.2,-999.0,83,-99.99,,,0.43,Acu-Link.com,2013-09-29 01:40:00,
2013-09-28 18:55:00,55.4,50.0,29.46,NE,45,1.1,-999.0,82,-99.99,,,0.43,Acu-Link.com,2013-09-29 01:55:00,
2013-09-28 19:10:00,55.4,50.0,29.45,NE,45,2.2,-999.0,82,-99.99,,,0.43,Acu-Link.com,2013-09-29 02:10:00,
2013-09-28 19:26:00,55.4,49.3,29.44,ENE,67,4.2,-999.0,80,-99.99,,,0.43,Acu-Link.com,2013-09-29 02:26:00,
2013-09-28 19:41:00,55.4,49.0,29.43,WSW,247,2.7,-999.0,79,-99.99,,,0.43,Acu-Link.com,2013-09-29 02:41:00,
2013-09-28 19:56:00,55.9,48.8,29.42,SW,225,2.2,-999.0,77,-99.99,,,0.43,Acu-Link.com,2013-09-29 02:56:00,
2013-09-28 20:12:00,56.3,48.8,29.42,West,270,2.2,-999.0,76,-99.99,,,0.43,Acu-Link.com,2013-09-29 03:12:00,
2013-09-28 20:27:00,56.5,48.3,29.41,ENE,67,4.7,-999.0,74,-99.99,,,0.43,Acu-Link.com,2013-09-29 03:27:00,
2013-09-28 20:42:00,56.7,47.8,29.39,East,90,4.2,-999.0,72,-99.99,,,0.43,Acu-Link.com,2013-09-29 03:42:00,
2013-09-28 20:58:00,57.2,47.9,29.39,NE,45,13.5,-999.0,71,-99.99,,,0.43,Acu-Link.com,2013-09-29 03:58:00,
2013-09-28 21:13:00,57.4,47.7,29.38,ESE,112,9.9,-999.0,70,-99.99,,,0.43,Acu-Link.com,2013-09-29 04:13:00,
2013-09-28 21:28:00,57.4,47.7,29.38,East,90,3.7,-999.0,70,-99.99,,,0.43,Acu-Link.com,2013-09-29 04:28:00,
2013-09-28 21:43:00,57.0,48.1,29.37,ESE,112,2.7,-999.0,72,-99.99,,,0.43,Acu-Link.com,2013-09-29 04:43:00,
2013-09-28 21:58:00,56.7,47.8,29.35,North,0,6.3,-999.0,72,-99.99,,,0.43,Acu-Link.com,2013-09-29 04:58:00,
2013-09-28 22:14:00,56.7,47.8,29.35,East,90,3.2,-999.0,72,-99.99,,,0.43,Acu-Link.com,2013-09-29 05:14:00,
2013-09-28 22:29:00,55.9,48.4,29.36,SSW,202,0.0,-999.0,76,-99.99,,,0.44,Acu-Link.com,2013-09-29 05:29:00,
2013-09-28 22:44:00,55.4,48.0,29.34,WNW,292,0.0,-999.0,76,-99.99,,,0.45,Acu-Link.com,2013-09-29 05:44:00,
2013-09-28 23:00:00,54.5,49.1,29.35,NW,315,1.7,-999.0,82,-99.99,,,0.45,Acu-Link.com,2013-09-29 06:00:00,
2013-09-28 23:15:00,54.7,49.3,29.35,NE,45,2.7,-999.0,82,-99.99,,,0.47,Acu-Link.com,2013-09-29 06:15:00,
2013-09-28 23:30:00,54.5,49.8,29.36,NW,315,1.1,-999.0,84,-99.99,,,0.50,Acu-Link.com,2013-09-29 06:30:00,
2013-09-28 23:45:00,54.3,49.9,29.36,East,90,1.1,-999.0,85,-99.99,,,0.52,Acu-Link.com,2013-09-29 06:45:00,